createdAt,value
2019-02-07T00:02:08.840Z,13.07
2019-02-07T00:04:40.379Z,13.40
2019-02-07T00:07:12.290Z,12.63
2019-02-07T00:09:43.825Z,12.70
2019-02-07T00:12:15.301Z,13.47
2019-02-07T00:14:46.796Z,14.23
2019-02-07T00:17:18.096Z,13.47
2019-02-07T00:19:50.029Z,12.43
2019-02-07T00:22:21.389Z,14.43
2019-02-07T00:24:52.958Z,12.90
2019-02-07T00:27:24.578Z,12.53
2019-02-07T00:29:55.993Z,11.17
2019-02-07T00:32:27.899Z,13.87
2019-02-07T00:34:59.558Z,13.63
2019-02-07T00:37:30.942Z,13.10
2019-02-07T00:40:02.091Z,11.37
2019-02-07T00:42:33.426Z,11.60
2019-02-07T00:45:05.583Z,13.07
2019-02-07T00:47:36.901Z,11.20
2019-02-07T00:50:08.351Z,13.60
2019-02-07T00:52:39.521Z,13.43
2019-02-07T00:55:12.303Z,12.13
2019-02-07T00:57:44.098Z,11.87
2019-02-07T01:00:18.191Z,11.47
2019-02-07T01:02:49.787Z,10.53
2019-02-07T01:05:21.565Z,12.53
2019-02-07T01:07:52.935Z,11.77
2019-02-07T01:10:24.985Z,12.07
2019-02-07T01:12:56.273Z,13.23
2019-02-07T01:15:27.869Z,11.53
2019-02-07T01:17:59.084Z,11.80
2019-02-07T01:20:30.461Z,14.20
2019-02-07T01:23:02.071Z,11.33
2019-02-07T01:25:33.507Z,12.57
2019-02-07T01:28:04.670Z,11.90
2019-02-07T01:30:36.410Z,12.60
2019-02-07T01:33:07.787Z,12.10
2019-02-07T01:35:39.397Z,12.20
2019-02-07T01:38:11.182Z,12.20
2019-02-07T01:40:42.211Z,11.30
2019-02-07T01:43:13.823Z,13.33
2019-02-07T01:45:45.039Z,13.30
2019-02-07T01:48:16.705Z,11.83
2019-02-07T01:50:48.009Z,11.90
2019-02-07T01:53:19.131Z,11.97
2019-02-07T01:55:50.591Z,13.30
2019-02-07T01:58:21.981Z,11.33
2019-02-07T02:00:53.825Z,11.20
2019-02-07T02:03:25.324Z,11.37
2019-02-07T02:05:55.041Z,12.30
2019-02-07T02:08:26.439Z,11.73
2019-02-07T02:10:57.751Z,11.63
2019-02-07T02:13:29.016Z,10.67
2019-02-07T02:16:00.325Z,11.53
2019-02-07T02:18:31.669Z,11.87
2019-02-07T02:21:10.897Z,12.37
2019-02-07T02:23:42.346Z,13.43
2019-02-07T02:26:14.221Z,12.27
2019-02-07T02:28:45.382Z,12.30
2019-02-07T02:31:17.017Z,12.53
2019-02-07T02:33:48.295Z,11.77
2019-02-07T02:36:19.567Z,11.40
2019-02-07T02:38:51.371Z,12.87
2019-02-07T02:41:22.601Z,10.70
2019-02-07T02:43:54.004Z,12.63
2019-02-07T02:46:25.347Z,12.63
2019-02-07T02:48:56.599Z,11.63
2019-02-07T02:51:28.333Z,14.57
2019-02-07T02:54:02.108Z,10.63
2019-02-07T02:56:33.441Z,12.07
2019-02-07T02:59:12.715Z,11.90
2019-02-07T03:02:05.138Z,12.23
2019-02-07T03:04:56.247Z,12.63
2019-02-07T03:07:38.855Z,13.03
2019-02-07T03:10:46.277Z,13.67
2019-02-07T03:13:38.687Z,11.87
2019-02-07T03:16:30.539Z,12.73
2019-02-07T03:19:26.567Z,11.13
2019-02-07T03:22:18.190Z,11.23
2019-02-07T03:25:23.191Z,12.57
2019-02-07T03:28:14.853Z,10.50
2019-02-07T03:31:05.336Z,12.97
2019-02-07T03:34:02.345Z,11.30
2019-02-07T03:37:07.212Z,11.50
2019-02-07T03:39:57.119Z,10.30
2019-02-07T03:42:49.659Z,10.27
2019-02-07T03:45:39.857Z,11.70
2019-02-07T03:48:41.098Z,11.07
2019-02-07T03:51:28.091Z,13.17
2019-02-07T03:54:32.949Z,12.50
2019-02-07T03:57:16.033Z,11.90
2019-02-07T04:00:08.107Z,14.43
2019-02-07T04:03:03.726Z,11.23
2019-02-07T04:05:51.244Z,12.47
2019-02-07T04:09:01.815Z,13.23
2019-02-07T04:11:49.949Z,11.83
2019-02-07T04:14:42.674Z,10.90
2019-02-07T04:17:36.580Z,11.13
2019-02-07T04:20:41.299Z,11.70
2019-02-07T04:23:33.447Z,11.87
2019-02-07T04:26:24.032Z,11.20
2019-02-07T04:29:16.257Z,13.43
2019-02-07T04:32:20.785Z,11.43
2019-02-07T04:35:07.178Z,11.47
2019-02-07T04:37:57.691Z,11.70
2019-02-07T04:40:47.382Z,10.97
2019-02-07T04:43:37.780Z,13.10
2019-02-07T04:46:27.171Z,11.77
2019-02-07T04:49:25.089Z,10.50
2019-02-07T04:52:15.515Z,12.30
2019-02-07T04:55:16.651Z,10.10
2019-02-07T04:58:11.962Z,10.80
2019-02-07T05:01:16.191Z,11.67
2019-02-07T05:04:14.472Z,13.33
2019-02-07T05:07:05.065Z,9.90
2019-02-07T05:09:50.544Z,11.33
2019-02-07T05:12:38.967Z,11.40
2019-02-07T05:15:25.490Z,11.60
2019-02-07T05:18:14.058Z,11.23
2019-02-07T05:20:58.298Z,11.73
2019-02-07T05:23:58.936Z,12.17
2019-02-07T05:26:43.593Z,11.07
2019-02-07T05:29:33.797Z,12.93
2019-02-07T05:32:24.255Z,11.93
2019-02-07T05:35:23.536Z,12.67
2019-02-07T05:38:16.442Z,11.60
2019-02-07T05:41:17.687Z,11.80
2019-02-07T05:44:09.721Z,12.23
2019-02-07T05:47:06.255Z,11.83
2019-02-07T05:50:18.879Z,11.93
2019-02-07T05:53:20.211Z,13.23
2019-02-07T05:56:12.766Z,13.87
2019-02-07T05:59:02.754Z,10.63
2019-02-07T06:02:01.423Z,14.13
2019-02-07T06:04:52.044Z,13.37
2019-02-07T06:07:42.233Z,11.13
2019-02-07T06:10:34.167Z,12.13
2019-02-07T06:13:23.425Z,14.07
2019-02-07T06:16:08.008Z,12.07
2019-02-07T06:18:58.171Z,14.73
2019-02-07T06:21:48.873Z,12.40
2019-02-07T06:24:38.558Z,14.37
2019-02-07T06:27:33.970Z,11.30
2019-02-07T06:30:33.379Z,12.77
2019-02-07T06:33:24.281Z,19.60
2019-02-07T06:36:14.984Z,14.03
2019-02-07T06:39:12.251Z,16.70
2019-02-07T06:42:03.763Z,16.17
2019-02-07T06:44:54.363Z,15.07
2019-02-07T06:47:44.553Z,14.77
2019-02-07T06:50:28.631Z,14.33
2019-02-07T06:53:26.263Z,15.53
2019-02-07T06:56:29.760Z,16.23
2019-02-07T06:59:20.050Z,18.27
2019-02-07T07:02:18.765Z,16.30
2019-02-07T07:05:02.160Z,16.93
2019-02-07T07:07:52.669Z,14.97
2019-02-07T07:10:51.145Z,17.20
2019-02-07T07:13:46.160Z,15.97
2019-02-07T07:16:35.009Z,17.67
2019-02-07T07:19:26.887Z,15.93
2019-02-07T07:22:21.737Z,15.30
2019-02-07T07:25:12.361Z,12.53
2019-02-07T07:28:04.370Z,15.00
2019-02-07T07:31:15.333Z,16.67
2019-02-07T07:34:05.746Z,15.37
2019-02-07T07:36:49.601Z,15.73
2019-02-07T07:39:53.510Z,15.90
2019-02-07T07:42:45.510Z,12.90
2019-02-07T07:45:36.742Z,12.00
2019-02-07T07:48:27.957Z,13.40
2019-02-07T07:51:17.024Z,12.40
2019-02-07T07:54:07.317Z,14.57
2019-02-07T07:56:57.497Z,16.63
2019-02-07T07:59:47.380Z,14.43
2019-02-07T08:02:39.914Z,13.07
2019-02-07T08:05:55.701Z,16.00
2019-02-07T08:08:49.257Z,11.47
2019-02-07T08:11:35.357Z,12.23
2019-02-07T08:14:35.077Z,13.97
2019-02-07T08:17:47.077Z,13.23
2019-02-07T08:20:42.541Z,14.07
2019-02-07T08:23:35.080Z,13.83
2019-02-07T08:26:33.435Z,13.60
2019-02-07T08:29:16.875Z,12.63
2019-02-07T08:32:03.671Z,13.73
2019-02-07T08:34:54.154Z,13.60
2019-02-07T08:37:43.015Z,13.90
2019-02-07T08:40:38.536Z,12.30
2019-02-07T08:43:42.763Z,13.37
2019-02-07T08:46:33.386Z,11.83
2019-02-07T08:49:32.208Z,13.63
2019-02-07T08:52:30.951Z,14.07
2019-02-07T08:55:22.675Z,13.67
2019-02-07T08:58:18.054Z,11.73
2019-02-07T09:01:22.816Z,11.80
2019-02-07T09:04:30.518Z,12.57
2019-02-07T09:07:22.983Z,10.80
2019-02-07T09:10:18.357Z,14.40
2019-02-07T09:13:08.871Z,13.17
2019-02-07T09:15:56.621Z,11.03
2019-02-07T09:18:54.794Z,11.03
2019-02-07T09:21:47.418Z,12.60
2019-02-07T09:24:47.544Z,12.33
2019-02-07T09:27:50.708Z,11.97
2019-02-07T09:30:51.492Z,12.60
2019-02-07T09:33:43.715Z,12.30
2019-02-07T09:36:48.422Z,13.07
2019-02-07T09:39:39.037Z,11.70
2019-02-07T09:45:38.483Z,11.73
2019-02-07T09:48:35.723Z,12.47
2019-02-07T09:51:24.273Z,12.03
2019-02-07T09:54:25.723Z,12.00
2019-02-07T09:57:33.224Z,12.50
2019-02-07T10:00:39.579Z,11.40
2019-02-07T10:03:30.294Z,13.70
2019-02-07T10:06:37.886Z,9.17
2019-02-07T10:09:41.085Z,11.67
2019-02-07T10:12:33.848Z,10.70
2019-02-07T10:15:16.445Z,9.97
2019-02-07T10:18:14.429Z,12.73
2019-02-07T10:21:13.012Z,11.57
2019-02-07T10:24:16.795Z,9.20
2019-02-07T10:27:07.441Z,10.50
2019-02-07T10:30:02.566Z,9.20
2019-02-07T10:32:46.865Z,10.30
2019-02-07T10:35:45.354Z,10.60
2019-02-07T10:38:33.871Z,10.27
2019-02-07T10:41:27.272Z,11.13
2019-02-07T10:44:17.350Z,10.57
2019-02-07T10:47:16.368Z,11.27
2019-02-07T10:50:03.548Z,10.87
2019-02-07T10:53:01.951Z,9.80
2019-02-07T10:55:57.062Z,11.70
2019-02-07T10:58:47.947Z,10.30
2019-02-07T11:01:38.259Z,11.17
2019-02-07T11:04:22.199Z,9.57
2019-02-07T11:07:14.231Z,10.47
2019-02-07T11:09:56.139Z,12.13
2019-02-07T11:12:48.447Z,10.20
2019-02-07T11:15:50.939Z,10.20
2019-02-07T11:18:55.279Z,10.90
2019-02-07T11:21:43.066Z,10.57
2019-02-07T11:24:28.415Z,10.27
2019-02-07T11:27:18.667Z,11.63
2019-02-07T11:30:03.942Z,10.47
2019-02-07T11:33:05.630Z,11.30
2019-02-07T11:35:58.348Z,11.43
2019-02-07T11:38:48.437Z,11.17
2019-02-07T11:41:39.051Z,9.90
2019-02-07T11:44:37.603Z,10.57
2019-02-07T11:47:36.331Z,10.03
2019-02-07T11:50:26.119Z,9.27
2019-02-07T11:53:16.051Z,10.40
2019-02-07T11:56:06.774Z,11.70
2019-02-07T11:59:06.610Z,11.30
2019-02-07T12:02:09.220Z,10.17
2019-02-07T12:05:00.505Z,8.67
2019-02-07T12:07:49.727Z,10.20
2019-02-07T12:10:40.867Z,10.50
2019-02-07T12:13:33.211Z,9.70
2019-02-07T12:16:26.777Z,10.00
2019-02-07T12:19:19.019Z,9.13
2019-02-07T12:22:09.309Z,10.47
2019-02-07T12:25:09.310Z,9.00
2019-02-07T12:28:16.909Z,9.10
2019-02-07T12:31:12.233Z,9.43
2019-02-07T12:33:58.503Z,10.13
2019-02-07T12:36:56.607Z,9.97
2019-02-07T12:40:07.620Z,8.23
2019-02-07T12:42:58.314Z,10.00
2019-02-07T12:45:57.194Z,8.90
2019-02-07T12:48:47.380Z,10.10
2019-02-07T12:51:31.632Z,10.00
2019-02-07T12:54:32.669Z,8.90
2019-02-07T12:57:16.402Z,10.60
2019-02-07T13:00:18.479Z,10.17
2019-02-07T13:03:29.760Z,11.20
2019-02-07T13:06:20.660Z,9.13
2019-02-07T13:09:11.714Z,8.63
2019-02-07T13:11:56.810Z,8.67
2019-02-07T13:14:52.379Z,8.77
2019-02-07T13:17:38.859Z,8.70
2019-02-07T13:20:37.844Z,11.27
2019-02-07T13:23:27.843Z,8.47
2019-02-07T13:26:26.344Z,9.53
2019-02-07T13:29:21.258Z,9.07
2019-02-07T13:32:10.491Z,10.20
2019-02-07T13:34:52.312Z,8.73
2019-02-07T13:37:37.192Z,9.63
2019-02-07T13:40:27.241Z,9.33
2019-02-07T13:43:29.211Z,9.37
2019-02-07T13:46:26.973Z,8.93
2019-02-07T13:49:19.721Z,9.37
2019-02-07T13:52:15.134Z,8.50
2019-02-07T13:55:04.093Z,8.87
2019-02-07T13:57:59.217Z,10.77
2019-02-07T14:00:51.743Z,8.17
2019-02-07T14:03:54.239Z,9.20
2019-02-07T14:06:46.565Z,9.63
2019-02-07T14:09:37.363Z,8.23
2019-02-07T14:12:32.787Z,9.37
2019-02-07T14:15:40.703Z,10.63
2019-02-07T14:18:38.860Z,8.20
2019-02-07T14:21:46.973Z,8.67
2019-02-07T14:24:32.356Z,8.73
2019-02-07T14:27:21.505Z,8.47
2019-02-07T14:30:11.805Z,9.30
2019-02-07T14:33:04.166Z,8.47
2019-02-07T14:35:54.339Z,8.67
2019-02-07T14:38:53.091Z,9.90
2019-02-07T14:41:54.381Z,8.43
2019-02-07T14:44:46.925Z,7.80
2019-02-07T14:47:18.573Z,9.10
2019-02-07T14:49:50.038Z,9.20
2019-02-07T14:52:21.792Z,8.87
2019-02-07T14:54:53.191Z,8.50
2019-02-07T14:57:24.751Z,10.87
2019-02-07T15:00:09.794Z,9.97
2019-02-07T15:02:41.367Z,8.83
2019-02-07T15:05:20.735Z,9.17
2019-02-07T15:08:00.541Z,10.90
2019-02-07T15:10:39.977Z,8.50
2019-02-07T15:13:19.523Z,9.17
2019-02-07T15:15:51.444Z,9.23
2019-02-07T15:18:23.275Z,9.87
2019-02-07T15:20:54.845Z,9.87
2019-02-07T15:23:32.009Z,8.50
2019-02-07T15:26:11.655Z,10.07
2019-02-07T15:28:42.917Z,9.13
2019-02-07T15:31:14.445Z,10.13
2019-02-07T15:33:45.925Z,10.13
2019-02-07T15:36:17.411Z,9.50
2019-02-07T15:38:48.627Z,10.33
2019-02-07T15:41:28.085Z,9.40
2019-02-07T15:43:59.340Z,9.53
2019-02-07T15:46:38.592Z,9.27
2019-02-07T15:49:09.939Z,8.37
2019-02-07T15:51:41.375Z,10.17
2019-02-07T15:54:13.335Z,9.17
2019-02-07T15:56:44.778Z,9.67
2019-02-07T15:59:24.985Z,8.43
2019-02-07T16:02:01.697Z,9.43
2019-02-07T16:04:37.152Z,8.73
2019-02-07T16:07:08.896Z,9.43
2019-02-07T16:09:40.421Z,9.20
2019-02-07T16:12:22.077Z,9.33
2019-02-07T16:14:53.668Z,9.57
2019-02-07T16:17:33.226Z,10.03
2019-02-07T16:20:05.722Z,10.00
2019-02-07T16:22:37.262Z,8.37
2019-02-07T16:25:10.197Z,9.50
2019-02-07T16:27:41.553Z,10.40
2019-02-07T16:30:14.387Z,11.73
2019-02-07T16:32:45.705Z,9.10
2019-02-07T16:35:17.355Z,9.10
2019-02-07T16:37:48.775Z,9.77
2019-02-07T16:40:21.968Z,9.17
2019-02-07T16:43:01.150Z,10.73
2019-02-07T16:45:32.601Z,10.77
2019-02-07T16:48:06.581Z,10.73
2019-02-07T16:50:38.443Z,9.13
2019-02-07T16:53:09.916Z,9.83
2019-02-07T16:55:41.846Z,11.13
2019-02-07T16:58:13.533Z,10.00
2019-02-07T17:00:45.188Z,10.67
2019-02-07T17:03:17.003Z,10.43
2019-02-07T17:05:48.415Z,10.87
2019-02-07T17:08:19.921Z,9.00
2019-02-07T17:10:51.332Z,12.93
2019-02-07T17:13:23.294Z,10.63
2019-02-07T17:15:54.961Z,9.97
2019-02-07T17:18:26.452Z,8.63
2019-02-07T17:20:58.077Z,10.60
2019-02-07T17:23:37.565Z,8.83
2019-02-07T17:26:16.975Z,8.60
2019-02-07T17:28:48.433Z,12.00
2019-02-07T17:31:19.898Z,11.17
2019-02-07T17:33:51.377Z,10.87
2019-02-07T17:36:22.903Z,10.00
2019-02-07T17:38:54.289Z,8.10
2019-02-07T17:41:25.696Z,10.20
2019-02-07T17:43:57.254Z,9.53
2019-02-07T17:46:36.581Z,10.07
2019-02-07T17:49:16.177Z,10.20
2019-02-07T17:51:56.003Z,10.90
2019-02-07T17:54:35.669Z,10.13
2019-02-07T17:57:07.210Z,11.53
2019-02-07T17:59:38.949Z,11.20
2019-02-07T18:02:18.704Z,10.50
2019-02-07T18:04:50.050Z,8.33
2019-02-07T18:07:21.836Z,9.50
2019-02-07T18:09:53.390Z,8.53
2019-02-07T18:12:24.955Z,10.93
2019-02-07T18:14:56.757Z,11.43
2019-02-07T18:17:36.347Z,13.27
2019-02-07T18:20:17.079Z,8.80
2019-02-07T18:22:56.635Z,11.00
2019-02-07T18:25:28.071Z,10.60
2019-02-07T18:27:59.649Z,13.67
2019-02-07T18:30:31.161Z,12.30
2019-02-07T18:33:10.447Z,11.53
2019-02-07T18:35:41.938Z,11.43
2019-02-07T18:38:13.493Z,10.17
2019-02-07T18:40:45.303Z,12.17
2019-02-07T18:43:17.017Z,10.33
2019-02-07T18:45:48.513Z,11.70
2019-02-07T18:48:19.966Z,9.20
2019-02-07T18:50:51.626Z,10.30
2019-02-07T18:53:31.622Z,12.37
2019-02-07T18:56:10.984Z,16.07
2019-02-07T18:58:42.475Z,13.20
2019-02-07T19:01:13.958Z,10.07
2019-02-07T19:03:53.361Z,18.07
2019-02-07T19:06:24.677Z,15.17
2019-02-07T19:08:56.137Z,27.77
2019-02-07T19:11:27.858Z,18.80
2019-02-07T19:13:57.682Z,20.83
2019-02-07T19:16:29.260Z,16.63
2019-02-07T19:19:00.784Z,19.27
2019-02-07T19:21:33.085Z,19.27
2019-02-07T19:24:04.808Z,17.10
2019-02-07T19:26:44.020Z,21.30
2019-02-07T19:29:23.786Z,18.37
2019-02-07T19:31:55.375Z,16.40
2019-02-07T19:34:26.503Z,15.83
2019-02-07T19:36:57.997Z,21.50
2019-02-07T19:39:37.509Z,17.50
2019-02-07T19:42:10.142Z,17.33
2019-02-07T19:44:41.758Z,17.47
2019-02-07T19:47:13.339Z,14.33
2019-02-07T19:49:44.815Z,18.33
2019-02-07T19:52:16.291Z,15.30
2019-02-07T19:54:55.741Z,14.73
2019-02-07T19:57:34.913Z,15.93
2019-02-07T20:00:08.288Z,20.10
2019-02-07T20:02:40.230Z,17.77
2019-02-07T20:05:11.835Z,15.37
2019-02-07T20:07:43.281Z,17.53
2019-02-07T20:10:16.700Z,16.10
2019-02-07T20:12:47.925Z,16.90
2019-02-07T20:15:22.027Z,25.10
2019-02-07T20:18:02.477Z,14.73
2019-02-07T20:20:33.886Z,14.00
2019-02-07T20:23:13.233Z,16.57
2019-02-07T20:25:53.313Z,16.80
2019-02-07T20:28:32.503Z,22.10
2019-02-07T20:31:12.252Z,15.77
2019-02-07T20:33:51.789Z,16.70
2019-02-07T20:36:32.251Z,19.27
2019-02-07T20:39:11.495Z,14.93
2019-02-07T20:41:51.319Z,16.23
2019-02-07T20:44:22.785Z,17.67
2019-02-07T20:47:02.128Z,14.27
2019-02-07T20:49:33.525Z,14.13
2019-02-07T20:52:05.238Z,16.10
2019-02-07T20:54:36.775Z,16.70
2019-02-07T20:57:16.379Z,16.43
2019-02-07T20:59:59.492Z,13.97
2019-02-07T21:02:39.019Z,17.40
2019-02-07T21:05:18.778Z,22.43
2019-02-07T21:07:50.073Z,17.80
2019-02-07T21:10:30.359Z,18.20
2019-02-07T21:13:10.103Z,19.67
2019-02-07T21:15:41.708Z,18.10
2019-02-07T21:18:21.321Z,18.77
2019-02-07T21:21:00.867Z,20.10
2019-02-07T21:23:40.617Z,19.97
2019-02-07T21:26:19.971Z,16.57
2019-02-07T21:29:00.207Z,17.93
2019-02-07T21:31:40.290Z,14.17
2019-02-07T21:34:20.114Z,16.97
2019-02-07T21:37:02.721Z,15.33
2019-02-07T21:39:42.217Z,16.37
2019-02-07T21:42:21.747Z,15.00
2019-02-07T21:45:00.964Z,19.10
2019-02-07T21:47:40.273Z,15.90
2019-02-07T21:50:21.747Z,14.00
2019-02-07T21:53:01.687Z,19.47
2019-02-07T21:55:41.498Z,17.07
2019-02-07T21:58:22.879Z,17.80
2019-02-07T22:01:05.521Z,14.40
2019-02-07T22:03:45.037Z,17.00
2019-02-07T22:06:28.159Z,15.10
2019-02-07T22:09:13.369Z,17.30
2019-02-07T22:11:56.941Z,14.80
2019-02-07T22:14:37.110Z,17.67
2019-02-07T22:17:16.760Z,15.20
2019-02-07T22:19:56.419Z,15.17
2019-02-07T22:22:36.199Z,13.40
2019-02-07T22:25:19.091Z,16.33
2019-02-07T22:28:00.845Z,17.97
2019-02-07T22:30:43.585Z,15.60
2019-02-07T22:33:25.953Z,15.83
2019-02-07T22:36:08.302Z,14.60
2019-02-07T22:38:51.189Z,15.17
2019-02-07T22:41:24.153Z,16.70
2019-02-07T22:44:06.151Z,12.07
2019-02-07T22:46:46.037Z,14.77
2019-02-07T22:49:25.357Z,14.87
2019-02-07T22:52:08.829Z,13.87
2019-02-07T22:54:48.668Z,14.77
2019-02-07T22:57:27.936Z,14.27
2019-02-07T23:00:41.620Z,17.47
2019-02-07T23:03:23.329Z,15.37
2019-02-07T23:06:05.551Z,13.13
2019-02-07T23:08:48.567Z,17.40
2019-02-07T23:11:28.139Z,18.60
2019-02-07T23:14:08.011Z,14.40
2019-02-07T23:16:39.713Z,14.87
2019-02-07T23:19:19.020Z,15.47
2019-02-07T23:21:59.402Z,15.63
2019-02-07T23:24:39.456Z,14.97
2019-02-07T23:27:21.842Z,14.77
2019-02-07T23:30:04.879Z,13.10
2019-02-07T23:32:46.803Z,14.30
2019-02-07T23:35:29.446Z,14.07
2019-02-07T23:38:10.810Z,13.93
2019-02-07T23:40:53.135Z,13.17
2019-02-07T23:43:35.675Z,13.07
2019-02-07T23:46:18.409Z,13.67
2019-02-07T23:49:01.202Z,12.83
2019-02-07T23:51:40.795Z,13.47
2019-02-07T23:54:20.278Z,13.80
2019-02-07T23:57:02.148Z,14.07
2019-02-07T23:59:41.467Z,15.20
